Impacts TAF Board
For situational awareness. Not to be used for flight planning purposes.
IDs:

KPHL - Philadelphia Intl, PA, US

Issued at 1453 UTC 10 Aug 2022
Updated at 1517 UTC 10 Aug 2022
Potential Impact None Slight Moderate High
Time1454Z 10/16Z 10/17Z 10/18Z 10/19Z 10/20Z 10/21Z 10/22Z 10/23Z 11/00Z 11/01Z 11/02Z 11/03Z 11/04Z>>
Type OBS PRVL PRVL PRVL PRVL PRVL PRVL PRVL PRVL PRVL PRVL
  [TEMP]  
PRVL
  [TEMP]  
PRVL
  [TEMP]  
PRVL
  [TEMP]  
VIS 10 >6 >6 >6 >6 >6 >6 >6 >6 >6 >6
  [2]  
>6
  [2]  
>6
  [2]  
>6
  [2]  
CIG -- -- -- -- -- -- -- -- 100 100 100
  [15]  
100
  [15]  
100
  [15]  
100
  [15]  
Cover FEW SCT SCT SCT SCT SCT SCT SCT BKN BKN BKN
  [OVC]  
BKN
  [OVC]  
BKN
  [OVC]  
BKN
  [OVC]  
FltCat VFR VFR VFR VFR VFR VFR VFR VFR VFR VFR VFR
  [IFR]  
VFR
  [IFR]  
VFR
  [IFR]  
VFR
  [IFR]  
WX -- -- -- -- -- -- -- -- -- -- --
  [TSRA BR]  
--
  [TSRA BR]  
--
  [TSRA BR]  
--
  [TSRA BR]  
WDir VRB VRB 310 310 310 310 310 310 VRB VRB VRB
[VRB]
VRB
[VRB]
VRB
[VRB]
VRB
[VRB]
WSpd 4 5 6 6 6 6 6 6 3 3 3
  [3]  
3
  [3]  
3
  [3]  
3
  [3]  
WGst -- -- -- -- -- -- -- -- -- -- --
  [--]  
--
  [--]  
--
  [--]  
--
  [--]  
WSHgt -- -- -- -- -- -- -- -- -- -- --
[--]
--
[--]
--
[--]
--
[--]
WSDir -- -- -- -- -- -- -- -- -- -- --
[--]
--
[--]
--
[--]
--
[--]
WSSpd -- -- -- -- -- -- -- -- -- -- --
[--]
--
[--]
--
[--]
--
[--]
Raw TAF
KPHL 101453Z 1015/1118 VRB05KT P6SM FEW035 SCT050
  FM101700 31006KT P6SM SCT050
  FM102300 VRB03KT P6SM SCT050 BKN100
  TEMPO 1101/1105 2SM TSRA BR OVC015CB
  FM110500 30004KT 4SM SHRA BR OVC025
  FM111300 32006KT P6SM SCT025 BKN050


Raw METAR
KPHL 101454Z VRB04KT 10SM FEW038 FEW220 31/21 A3006 RMK AO2 SLP179 T03060206 51004 $
KPHL 101354Z 11004KT 10SM FEW034 FEW050 FEW220 30/21 A3006 RMK AO2 SLP178 T03000211 $
KPHL 101254Z 07007KT 10SM FEW120 FEW220 28/21 A3006 RMK AO2 SLP179 T02830206 $

METAR Board
Radar Display
Forecast Discussion
For situational awareness. Not to be used for flight planning purposes.